Time;durP1;ratioP1;P1;durP2;ratioP2;P2;SDS_P1;SDS_P2;PMS_P1;PMS_P2;Temp;Humidity;BMP_temperature;BMP_pressure;BME280_temperature;BME280_humidity;BME280_pressure;Samples;Min_cycle;Max_cycle;Signal;HPM_P1;HPM_P2
2022/01/18 00:00:47;;;;;;;45.92;7.55;;;6.40;99.90;;;;;;5131940;28;20035;-50
2022/01/18 00:03:14;;;;;;;51.03;6.93;;;6.40;99.90;;;;;;5131929;28;20035;-52
2022/01/18 00:05:43;;;;;;;47.47;7.35;;;6.30;99.90;;;;;;5131894;28;20071;-52
2022/01/18 00:08:08;;;;;;;58.03;8.55;;;6.20;99.90;;;;;;5131709;28;20043;-50
2022/01/18 00:10:34;;;;;;;54.67;7.88;;;6.10;99.90;;;;;;5131996;28;20042;-52
2022/01/18 00:18:20;;;;;;;56.10;8.70;;;6.00;99.90;;;;;;5135221;27;20054;-51
2022/01/18 00:21:09;;;;;;;63.78;8.95;;;6.00;99.90;;;;;;5135951;27;20039;-53
2022/01/18 00:23:36;;;;;;;55.30;7.78;;;5.90;99.90;;;;;;5135656;27;20557;-54
2022/01/18 00:26:07;;;;;;;54.53;8.32;;;5.80;99.90;;;;;;5135778;27;20057;-54
2022/01/18 00:28:33;;;;;;;51.88;7.40;;;5.80;99.90;;;;;;5134631;27;20458;-51
2022/01/18 00:36:09;;;;;;;51.13;7.47;;;5.60;99.90;;;;;;5135361;27;20515;-54
2022/01/18 00:38:47;;;;;;;47.28;6.65;;;5.60;99.90;;;;;;5135467;27;20054;-52
2022/01/18 00:41:14;;;;;;;45.42;6.80;;;5.60;99.90;;;;;;5133694;27;20062;-52
2022/01/18 00:43:41;;;;;;;60.17;8.18;;;5.60;99.90;;;;;;5135686;27;20184;-51
2022/01/18 00:46:07;;;;;;;49.88;6.47;;;5.50;99.90;;;;;;5135059;27;20374;-53
2022/01/18 00:48:35;;;;;;;59.55;6.43;;;5.50;99.90;;;;;;5134669;27;20057;-53
2022/01/18 00:51:03;;;;;;;49.03;6.45;;;5.50;99.90;;;;;;5133780;27;20062;-54
2022/01/18 00:53:31;;;;;;;56.42;6.30;;;5.40;99.90;;;;;;5135169;27;20545;-51
2022/01/18 00:56:16;;;;;;;56.65;5.85;;;5.40;99.90;;;;;;5134866;27;20046;-51
2022/01/18 00:58:44;;;;;;;52.00;6.05;;;5.40;99.90;;;;;;5115979;27;20178;-50
2022/01/18 01:01:11;;;;;;;51.03;6.35;;;5.40;99.90;;;;;;5134902;27;20039;-52
2022/01/18 01:03:38;;;;;;;57.22;6.85;;;5.40;99.90;;;;;;5134949;27;20098;-54
2022/01/18 01:06:04;;;;;;;49.85;5.72;;;5.40;99.90;;;;;;5134509;27;20042;-50
2022/01/18 01:08:30;;;;;;;53.33;6.82;;;5.50;99.90;;;;;;5134638;27;20031;-49
2022/01/18 01:10:57;;;;;;;57.13;7.18;;;5.50;99.90;;;;;;5134616;27;20043;-54
2022/01/18 01:13:24;;;;;;;48.05;6.82;;;5.50;99.90;;;;;;5134579;27;20035;-51
2022/01/18 01:18:40;;;;;;;54.40;6.43;;;5.40;99.90;;;;;;5134516;27;20039;-51
2022/01/18 01:35:34;;;;;;;48.30;6.53;;;5.30;99.90;;;;;;5134055;27;20067;-53
2022/01/18 01:45:33;;;;;;;49.42;6.25;;;5.30;99.90;;;;;;5133856;27;20035;-54
2022/01/18 01:48:00;;;;;;;46.10;6.57;;;5.30;99.90;;;;;;5133753;27;20057;-54
2022/01/18 01:50:38;;;;;;;52.72;6.65;;;5.30;99.90;;;;;;5132974;27;20482;-52
2022/01/18 01:53:04;;;;;;;57.63;6.72;;;5.30;99.90;;;;;;5133856;27;20035;-51
2022/01/18 01:55:30;;;;;;;50.58;6.80;;;5.30;99.90;;;;;;5133701;27;20047;-53
2022/01/18 01:57:55;;;;;;;45.10;6.50;;;5.30;99.90;;;;;;5134111;27;20035;-53
2022/01/18 02:00:22;;;;;;;53.30;7.10;;;5.20;99.90;;;;;;5133710;27;20109;-53
2022/01/18 02:02:47;;;;;;;57.08;7.07;;;5.30;99.90;;;;;;5133288;27;20496;-52
2022/01/18 02:05:13;;;;;;;50.22;6.43;;;5.30;99.90;;;;;;5133633;27;20040;-53
2022/01/18 02:07:39;;;;;;;59.88;7.05;;;5.30;99.90;;;;;;5133937;27;20139;-53
2022/01/18 02:10:10;;;;;;;74.63;8.23;;;5.30;99.90;;;;;;5133668;27;20050;-52
2022/01/18 02:12:37;;;;;;;58.55;7.50;;;5.30;99.90;;;;;;5115522;27;20050;-53
2022/01/18 02:15:12;;;;;;;62.38;7.10;;;5.30;99.90;;;;;;5133116;27;20389;-54
2022/01/18 02:23:17;;;;;;;;;;;5.30;99.90;;;;;;5133797;27;20093;-55
2022/01/18 02:25:42;;;;;;;92.32;8.48;;;5.30;99.90;;;;;;5132884;27;20009;-53
2022/01/18 02:28:09;;;;;;;59.05;8.13;;;5.30;99.90;;;;;;5133403;27;20088;-51
2022/01/18 02:30:35;;;;;;;76.50;8.68;;;5.40;99.90;;;;;;5132937;27;20039;-51
2022/01/18 02:33:00;;;;;;;110.45;9.38;;;5.40;99.90;;;;;;5133477;27;20103;-53
2022/01/18 02:35:26;;;;;;;77.40;8.60;;;5.40;99.90;;;;;;5132468;27;20404;-51
2022/01/18 02:37:53;;;;;;;82.93;9.05;;;5.40;99.90;;;;;;5132536;27;20055;-52
2022/01/18 02:40:20;;;;;;;94.15;8.40;;;5.40;99.90;;;;;;5114577;27;20046;-52
2022/01/18 02:42:56;;;;;;;72.25;8.00;;;5.40;99.90;;;;;;5133093;27;20054;-54
2022/01/18 02:45:22;;;;;;;45.38;8.38;;;5.40;99.90;;;;;;5133082;27;20038;-50
2022/01/18 02:47:48;;;;;;;61.53;7.90;;;5.40;99.90;;;;;;5132173;27;20038;-52
2022/01/18 02:50:14;;;;;;;80.40;8.52;;;5.40;99.90;;;;;;5132812;27;20034;-52
2022/01/18 02:52:40;;;;;;;70.03;8.32;;;5.40;99.90;;;;;;5132408;27;20035;-48
2022/01/18 02:55:06;;;;;;;82.28;9.57;;;5.30;99.90;;;;;;5132879;27;20035;-50
2022/01/18 02:57:41;;;;;;;81.30;8.10;;;5.40;99.90;;;;;;5132492;27;20035;-53
2022/01/18 03:00:18;;;;;;;54.67;7.95;;;5.40;99.90;;;;;;5132587;27;20035;-48
2022/01/18 03:05:28;;;;;;;134.00;9.55;;;5.40;99.90;;;;;;5132688;27;20159;-52
2022/01/18 03:07:54;;;;;;;52.83;7.20;;;5.40;99.90;;;;;;5132559;27;20117;-52
2022/01/18 03:10:19;;;;;;;51.58;7.80;;;5.30;99.90;;;;;;5132599;27;20035;-55
2022/01/18 03:12:45;;;;;;;90.47;7.53;;;5.30;99.90;;;;;;5113631;27;20061;-52
2022/01/18 03:15:11;;;;;;;75.40;8.05;;;5.30;99.90;;;;;;5132624;27;20059;-51
2022/01/18 03:17:37;;;;;;;99.20;8.45;;;5.30;99.90;;;;;;5131730;27;20031;-53
2022/01/18 03:20:05;;;;;;;76.15;7.30;;;5.30;99.90;;;;;;5132446;27;20047;-53
2022/01/18 03:22:31;;;;;;;66.72;7.70;;;5.30;99.90;;;;;;5132317;27;20386;-53
2022/01/18 03:25:24;;;;;;;58.67;7.60;;;5.30;99.90;;;;;;5132150;27;20096;-50
2022/01/18 03:28:06;;;;;;;45.20;6.65;;;5.30;99.90;;;;;;5131307;27;20035;-50
2022/01/18 03:30:38;;;;;;;61.72;6.78;;;5.20;99.90;;;;;;5114010;27;20034;-55
2022/01/18 03:33:08;;;;;;;56.63;6.63;;;5.20;99.90;;;;;;5132337;27;20054;-53
2022/01/18 03:35:34;;;;;;;68.68;8.43;;;5.20;99.90;;;;;;5132048;27;20058;-50
2022/01/18 03:38:00;;;;;;;75.75;7.65;;;5.20;99.90;;;;;;5131813;27;20453;-52
2022/01/18 03:40:26;;;;;;;63.75;8.50;;;5.20;99.90;;;;;;5132317;27;20395;-50
2022/01/18 03:42:54;;;;;;;64.90;7.55;;;5.10;99.90;;;;;;5132065;27;20038;-49
2022/01/18 03:45:27;;;;;;;55.35;7.60;;;5.10;99.90;;;;;;5131972;28;20443;-52
2022/01/18 03:47:55;;;;;;;59.90;7.63;;;5.10;99.90;;;;;;5131194;27;20367;-53
2022/01/18 03:50:21;;;;;;;99.43;8.70;;;5.10;99.90;;;;;;5113312;28;20043;-54
2022/01/18 03:52:47;;;;;;;65.47;8.07;;;5.10;99.90;;;;;;5131838;28;20039;-54
2022/01/18 03:55:16;;;;;;;69.35;8.20;;;5.10;99.90;;;;;;5131686;28;20389;-51
2022/01/18 03:57:42;;;;;;;53.33;7.63;;;5.10;99.90;;;;;;5131817;28;20389;-54
2022/01/18 04:00:12;;;;;;;55.03;7.65;;;5.10;99.90;;;;;;5131865;28;20031;-52
2022/01/18 04:02:38;;;;;;;49.90;7.75;;;5.10;99.90;;;;;;5131828;28;20031;-53
2022/01/18 04:05:05;;;;;;;48.20;7.18;;;5.00;99.90;;;;;;5131986;28;20035;-54
2022/01/18 04:07:30;;;;;;;57.65;7.45;;;5.00;99.90;;;;;;5131730;28;20066;-52
2022/01/18 04:09:56;;;;;;;62.25;7.85;;;5.00;99.90;;;;;;5131594;28;20118;-55
2022/01/18 04:12:22;;;;;;;52.38;7.53;;;5.20;99.90;;;;;;5131279;28;20569;-53
2022/01/18 04:14:48;;;;;;;50.88;7.70;;;5.10;99.90;;;;;;5131839;28;20043;-53
2022/01/18 04:27:48;;;;;;;72.60;9.88;;;5.00;99.90;;;;;;5131101;28;20493;-52
2022/01/18 04:30:14;;;;;;;60.95;8.70;;;5.10;99.90;;;;;;5131685;28;20043;-55
2022/01/18 04:32:40;;;;;;;86.32;9.30;;;5.00;99.90;;;;;;5131412;28;20481;-51
2022/01/18 04:35:06;;;;;;;45.97;8.63;;;5.00;99.90;;;;;;5131616;28;20075;-52
2022/01/18 04:37:32;;;;;;;76.55;8.68;;;5.00;99.90;;;;;;5131197;28;20486;-53
2022/01/18 04:39:59;;;;;;;80.43;8.88;;;5.00;99.90;;;;;;5131340;28;20054;-52
2022/01/18 04:42:46;;;;;;;89.20;10.27;;;5.00;99.90;;;;;;5131670;28;20035;-54
2022/01/18 04:50:41;;;;;;;65.60;8.75;;;5.00;99.90;;;;;;5131780;28;20067;-53
2022/01/18 04:53:06;;;;;;;73.20;9.13;;;5.10;99.90;;;;;;5131528;28;20085;-54
2022/01/18 04:55:33;;;;;;;98.43;10.02;;;5.10;99.90;;;;;;5131437;28;20051;-54
2022/01/18 04:57:59;;;;;;;72.15;9.20;;;5.00;99.90;;;;;;5131061;28;20058;-52
2022/01/18 05:00:25;;;;;;;98.43;9.18;;;5.10;99.90;;;;;;5133450;27;20035;-53
2022/01/18 05:02:52;;;;;;;86.55;9.38;;;5.10;99.90;;;;;;5135171;27;20041;-54
2022/01/18 05:05:28;;;;;;;96.47;9.93;;;5.00;99.90;;;;;;5135189;27;20031;-54
2022/01/18 05:07:58;;;;;;;62.28;8.27;;;5.00;99.90;;;;;;5134988;27;20031;-55
2022/01/18 05:10:27;;;;;;;100.18;9.90;;;5.00;99.90;;;;;;5134726;27;20485;-56
2022/01/18 05:12:55;;;;;;;72.20;8.88;;;5.00;99.90;;;;;;5134770;27;20035;-53
2022/01/18 05:15:38;;;;;;;69.57;9.57;;;5.00;99.90;;;;;;5134574;27;20042;-54
2022/01/18 05:23:10;;;;;;;38.83;8.00;;;5.00;99.90;;;;;;5134336;27;20482;-56
2022/01/18 05:25:37;;;;;;;37.22;7.88;;;5.00;99.90;;;;;;5115797;27;20054;-55
2022/01/18 05:28:06;;;;;;;53.75;9.35;;;5.00;99.90;;;;;;5134183;27;20447;-55
2022/01/18 05:30:32;;;;;;;58.25;8.57;;;5.00;99.90;;;;;;5134211;27;20159;-53
2022/01/18 05:32:59;;;;;;;37.13;8.35;;;5.00;99.90;;;;;;5115879;27;20396;-53
2022/01/18 05:35:25;;;;;;;43.60;9.40;;;5.10;99.90;;;;;;5133951;27;20039;-52
2022/01/18 05:37:51;;;;;;;41.85;8.82;;;5.00;99.90;;;;;;5134213;27;20042;-55
2022/01/18 05:40:18;;;;;;;45.97;9.90;;;5.00;99.90;;;;;;5134360;27;20054;-53
2022/01/18 05:42:45;;;;;;;42.28;10.00;;;5.00;99.90;;;;;;5134391;27;20413;-49
2022/01/18 05:45:11;;;;;;;39.83;10.00;;;5.00;99.90;;;;;;5133980;27;20035;-53
2022/01/18 05:47:38;;;;;;;51.22;10.75;;;5.10;99.90;;;;;;5133458;27;20043;-49
2022/01/18 05:50:06;;;;;;;37.75;10.13;;;5.00;99.90;;;;;;5133684;27;20039;-55
2022/01/18 05:52:32;;;;;;;38.55;10.02;;;5.00;99.90;;;;;;5132961;27;20091;-53
2022/01/18 05:54:58;;;;;;;38.88;10.77;;;5.00;99.90;;;;;;5133971;27;20125;-52
2022/01/18 05:57:23;;;;;;;46.55;11.35;;;5.00;99.90;;;;;;5115189;27;20126;-53
2022/01/18 05:59:50;;;;;;;41.35;10.95;;;5.00;99.90;;;;;;5134088;27;20031;-53
2022/01/18 06:02:19;;;;;;;39.78;10.57;;;5.00;99.90;;;;;;5133700;27;20046;-52
2022/01/18 06:07:30;;;;;;;37.05;10.63;;;5.00;99.90;;;;;;5134099;27;20434;-53
2022/01/18 06:09:56;;;;;;;42.13;10.57;;;5.10;99.90;;;;;;5133349;27;20130;-54
2022/01/18 06:12:24;;;;;;;42.47;10.27;;;5.10;99.90;;;;;;5133878;27;20027;-53
2022/01/18 06:14:50;;;;;;;46.25;11.40;;;5.10;99.90;;;;;;5133343;27;20035;-51
2022/01/18 06:17:15;;;;;;;47.05;11.43;;;5.10;99.90;;;;;;5132567;27;20042;-52
2022/01/18 06:19:41;;;;;;;40.47;10.45;;;5.10;99.90;;;;;;5133812;27;20035;-53
2022/01/18 06:22:07;;;;;;;39.92;9.98;;;5.10;99.90;;;;;;5133862;27;20046;-54
2022/01/18 06:24:32;;;;;;;31.80;9.18;;;5.10;99.90;;;;;;5133377;27;20381;-53
2022/01/18 06:26:58;;;;;;;29.58;8.02;;;5.10;99.90;;;;;;5133634;27;20043;-52
2022/01/18 06:29:24;;;;;;;30.30;8.05;;;5.20;99.90;;;;;;5133125;27;20469;-52
2022/01/18 06:31:49;;;;;;;31.83;8.18;;;5.20;99.90;;;;;;5133107;27;20561;-53
2022/01/18 06:34:15;;;;;;;28.77;8.02;;;5.20;99.90;;;;;;5133352;27;20485;-51
2022/01/18 06:36:41;;;;;;;38.80;9.65;;;5.10;99.90;;;;;;5133078;27;20035;-52
2022/01/18 06:39:08;;;;;;;34.17;9.73;;;5.20;99.90;;;;;;5128720;27;20055;-54
2022/01/18 06:41:33;;;;;;;34.63;9.90;;;5.20;99.90;;;;;;5132933;27;20050;-54
2022/01/18 06:43:59;;;;;;;36.22;9.48;;;5.20;99.90;;;;;;5133255;27;20031;-52
2022/01/18 06:46:25;;;;;;;39.55;9.35;;;5.20;99.90;;;;;;5132675;27;20046;-55
2022/01/18 06:48:51;;;;;;;41.42;9.98;;;5.20;99.90;;;;;;5132867;27;20047;-50
2022/01/18 06:51:17;;;;;;;42.13;10.50;;;5.20;99.90;;;;;;5132729;27;20401;-53
2022/01/18 06:53:47;;;;;;;36.42;9.25;;;5.20;99.90;;;;;;5132757;27;20140;-53
2022/01/18 06:56:18;;;;;;;39.83;10.32;;;5.20;99.90;;;;;;5131798;27;20553;-53
2022/01/18 06:58:44;;;;;;;34.78;9.00;;;5.20;99.90;;;;;;5132803;27;20062;-51
2022/01/18 07:01:12;;;;;;;44.17;10.10;;;5.20;99.90;;;;;;5132364;27;20035;-48
2022/01/18 07:03:38;;;;;;;34.78;9.52;;;5.20;99.90;;;;;;5132864;27;20687;-52
2022/01/18 07:06:04;;;;;;;42.63;9.82;;;5.20;99.90;;;;;;5132586;27;20035;-50
2022/01/18 07:08:32;;;;;;;47.63;10.43;;;5.20;99.90;;;;;;5132539;27;20034;-50
2022/01/18 07:10:58;;;;;;;46.80;10.85;;;5.20;99.90;;;;;;5132333;27;20031;-50
2022/01/18 07:13:25;;;;;;;49.88;10.93;;;5.20;99.90;;;;;;5132351;27;20031;-53
2022/01/18 07:15:50;;;;;;;50.60;11.57;;;5.20;99.90;;;;;;5132498;27;20237;-52
2022/01/18 07:18:16;;;;;;;69.50;13.38;;;5.20;99.90;;;;;;5132130;27;20047;-52
2022/01/18 07:20:42;;;;;;;48.67;11.82;;;5.20;99.90;;;;;;5132296;27;20056;-50
2022/01/18 07:23:11;;;;;;;49.38;11.77;;;5.20;99.90;;;;;;5113391;27;20027;-49
2022/01/18 07:25:42;;;;;;;44.10;11.80;;;5.20;99.90;;;;;;5132616;27;20051;-51
2022/01/18 07:28:09;;;;;;;58.85;13.27;;;5.20;99.90;;;;;;5132597;27;20035;-50
2022/01/18 07:30:35;;;;;;;52.53;13.18;;;5.30;99.90;;;;;;5132207;27;20035;-49
2022/01/18 07:33:00;;;;;;;42.13;12.63;;;5.20;99.90;;;;;;5132514;27;20520;-53
2022/01/18 07:35:27;;;;;;;50.30;12.70;;;5.20;99.90;;;;;;5113593;27;20070;-53
2022/01/18 07:37:53;;;;;;;45.33;11.73;;;5.20;99.90;;;;;;5131959;27;20477;-52
2022/01/18 07:40:19;;;;;;;43.63;10.75;;;5.20;99.90;;;;;;5132260;27;20047;-51
2022/01/18 07:42:44;;;;;;;43.58;10.18;;;5.20;99.90;;;;;;5131700;27;20039;-50
2022/01/18 07:45:10;;;;;;;45.47;10.57;;;5.20;99.90;;;;;;5131976;28;20042;-51
2022/01/18 07:47:36;;;;;;;46.58;11.05;;;5.20;99.90;;;;;;5131465;28;20043;-54
2022/01/18 07:50:03;;;;;;;40.95;10.90;;;5.20;99.90;;;;;;5131416;28;20038;-51
2022/01/18 07:52:32;;;;;;;50.92;10.65;;;5.20;99.90;;;;;;5130882;28;20073;-51
2022/01/18 07:54:57;;;;;;;36.88;10.68;;;5.20;99.90;;;;;;5113907;28;20545;-52
2022/01/18 07:57:23;;;;;;;42.17;10.57;;;5.20;99.90;;;;;;5131863;28;20039;-53
2022/01/18 07:59:49;;;;;;;45.83;11.15;;;5.20;99.90;;;;;;5131646;28;20038;-51
2022/01/18 08:02:15;;;;;;;42.28;10.07;;;5.20;99.90;;;;;;5131678;28;20390;-54
2022/01/18 08:04:40;;;;;;;44.47;10.57;;;5.20;99.90;;;;;;5132094;28;20118;-49
2022/01/18 08:07:07;;;;;;;36.92;9.75;;;5.20;99.90;;;;;;5096719;28;20064;-54
2022/01/18 08:09:32;;;;;;;51.72;10.65;;;5.20;99.90;;;;;;5131903;28;20114;-50
2022/01/18 08:11:58;;;;;;;51.45;11.82;;;5.20;99.90;;;;;;5131798;28;20513;-51
2022/01/18 08:14:26;;;;;;;59.97;13.13;;;5.20;99.90;;;;;;5131640;28;20031;-52
2022/01/18 08:17:03;;;;;;;44.78;11.82;;;5.20;99.90;;;;;;5131519;28;20039;-50
2022/01/18 08:19:30;;;;;;;42.75;10.88;;;5.20;99.90;;;;;;5113008;28;20043;-51
2022/01/18 08:21:57;;;;;;;37.20;9.73;;;5.20;99.90;;;;;;5131491;28;20031;-50
2022/01/18 08:24:23;;;;;;;34.78;9.25;;;5.20;99.90;;;;;;5131772;28;20454;-51
2022/01/18 08:26:49;;;;;;;38.92;9.80;;;5.20;99.90;;;;;;5113157;28;20134;-52
2022/01/18 08:29:15;;;;;;;32.20;8.57;;;5.20;99.90;;;;;;5131995;28;20126;-51
2022/01/18 08:31:41;;;;;;;35.40;8.70;;;5.20;99.90;;;;;;5131702;28;20034;-55
2022/01/18 08:34:07;;;;;;;29.65;9.52;;;5.20;99.90;;;;;;5132325;27;20050;-52
2022/01/18 08:36:33;;;;;;;27.95;8.63;;;5.20;99.90;;;;;;5135458;27;20039;-51
2022/01/18 08:39:00;;;;;;;29.08;8.35;;;5.20;99.90;;;;;;5135105;27;20055;-55
2022/01/18 08:41:26;;;;;;;36.78;8.60;;;5.30;99.90;;;;;;5133508;27;20039;-53
2022/01/18 08:43:53;;;;;;;28.98;7.65;;;5.30;99.90;;;;;;5135283;27;20035;-52
2022/01/18 08:46:19;;;;;;;27.88;7.88;;;5.30;99.90;;;;;;5116739;27;20043;-52
2022/01/18 08:48:45;;;;;;;30.70;8.00;;;5.40;99.90;;;;;;5135247;27;20035;-52
2022/01/18 08:51:11;;;;;;;23.20;6.97;;;5.40;99.90;;;;;;5129502;27;20400;-51
2022/01/18 08:53:38;;;;;;;16.17;4.50;;;5.50;99.90;;;;;;5130657;27;20046;-55
2022/01/18 08:56:05;;;;;;;20.63;5.70;;;5.50;99.90;;;;;;5133386;27;20043;-52
2022/01/18 08:58:32;;;;;;;19.75;5.82;;;5.50;99.90;;;;;;5127772;27;20046;-51
2022/01/18 09:00:58;;;;;;;20.70;5.65;;;5.50;99.90;;;;;;5123317;27;20035;-54
2022/01/18 09:03:24;;;;;;;16.45;5.68;;;5.50;99.90;;;;;;5126684;27;20188;-53
2022/01/18 09:05:51;;;;;;;18.35;5.43;;;5.60;99.90;;;;;;5127079;27;20035;-56
2022/01/18 09:08:19;;;;;;;18.58;5.10;;;5.60;99.90;;;;;;5126735;27;20512;-53
2022/01/18 09:10:47;;;;;;;20.67;6.03;;;5.60;99.90;;;;;;5107035;27;20039;-53
2022/01/18 09:13:14;;;;;;;22.58;6.40;;;5.70;99.90;;;;;;5126427;27;20039;-54
2022/01/18 09:15:39;;;;;;;18.63;6.35;;;5.70;99.90;;;;;;5126855;27;20042;-53
2022/01/18 09:18:05;;;;;;;21.52;6.47;;;5.80;99.90;;;;;;5126441;27;20039;-51
2022/01/18 09:20:31;;;;;;;15.40;6.32;;;5.80;99.90;;;;;;5126889;27;20042;-53
2022/01/18 09:22:57;;;;;;;14.57;4.32;;;5.80;99.90;;;;;;5126858;27;20023;-54
2022/01/18 09:25:25;;;;;;;11.23;3.72;;;5.90;99.90;;;;;;5126825;27;20061;-54
2022/01/18 09:27:53;;;;;;;11.27;2.78;;;5.80;99.90;;;;;;5126150;27;20058;-54
2022/01/18 09:30:19;;;;;;;11.43;3.80;;;5.80;99.90;;;;;;5126123;27;20045;-52
2022/01/18 09:32:46;;;;;;;8.43;3.17;;;5.90;99.90;;;;;;5126618;27;20031;-51
2022/01/18 09:35:13;;;;;;;12.95;4.45;;;5.80;99.90;;;;;;5126255;27;20035;-54
2022/01/18 09:37:39;;;;;;;14.25;4.82;;;5.90;99.90;;;;;;5126166;27;20050;-53
2022/01/18 09:40:05;;;;;;;13.75;4.72;;;5.90;99.90;;;;;;5126186;27;20170;-54
2022/01/18 09:42:34;;;;;;;15.45;4.50;;;5.90;99.90;;;;;;5121440;27;20031;-53
2022/01/18 09:45:04;;;;;;;12.63;4.47;;;5.90;99.90;;;;;;5082995;27;20447;-54
2022/01/18 09:47:30;;;;;;;12.90;4.60;;;5.90;99.90;;;;;;5122540;27;20050;-52
2022/01/18 09:49:58;;;;;;;15.63;4.32;;;6.00;99.90;;;;;;5119918;27;20625;-52
2022/01/18 09:52:23;;;;;;;16.73;4.55;;;6.00;99.90;;;;;;5118403;27;20168;-55
2022/01/18 09:54:49;;;;;;;16.48;4.55;;;6.00;99.90;;;;;;5121260;27;20070;-54
2022/01/18 09:57:15;;;;;;;13.60;4.47;;;6.00;99.90;;;;;;5123357;27;20092;-53
2022/01/18 09:59:41;;;;;;;19.17;4.00;;;6.00;99.90;;;;;;5123393;27;20505;-51
2022/01/18 10:02:10;;;;;;;12.85;4.10;;;6.10;99.90;;;;;;5122839;27;20393;-50
2022/01/18 10:04:43;;;;;;;12.23;3.25;;;6.00;99.90;;;;;;5122018;27;20125;-50
2022/01/18 10:07:09;;;;;;;9.65;3.40;;;6.10;99.90;;;;;;5123584;27;20027;-54
2022/01/18 10:09:35;;;;;;;11.05;3.45;;;6.10;99.90;;;;;;5120917;27;20516;-51
2022/01/18 10:12:15;;;;;;;10.18;3.35;;;6.10;99.90;;;;;;5124557;27;20114;-53
2022/01/18 10:14:59;;;;;;;15.52;4.75;;;6.10;99.90;;;;;;5124078;27;20043;-53
2022/01/18 10:17:30;;;;;;;14.98;3.97;;;6.10;99.90;;;;;;5104928;27;20047;-52
2022/01/18 10:20:18;;;;;;;13.80;4.10;;;6.10;99.90;;;;;;5119782;27;20027;-54
2022/01/18 10:22:49;;;;;;;12.57;3.92;;;6.10;99.90;;;;;;5122950;27;20166;-52
2022/01/18 10:25:20;;;;;;;14.65;4.45;;;6.10;99.90;;;;;;5121628;27;20040;-53
2022/01/18 10:27:49;;;;;;;11.40;3.80;;;6.10;99.90;;;;;;5120315;27;20035;-52
2022/01/18 10:30:23;;;;;;;16.70;4.43;;;6.10;99.90;;;;;;5118930;27;20387;-51
2022/01/18 10:33:27;;;;;;;14.25;4.45;;;6.20;99.90;;;;;;5121417;27;20376;-52
2022/01/18 10:36:14;;;;;;;12.82;4.35;;;6.20;99.90;;;;;;5063132;27;20047;-50
2022/01/18 10:38:45;;;;;;;14.18;4.32;;;6.20;99.90;;;;;;5122174;27;20074;-53
2022/01/18 10:41:27;;;;;;;12.98;4.20;;;6.20;99.90;;;;;;5122956;27;20035;-50
2022/01/18 10:44:10;;;;;;;16.63;4.45;;;6.20;99.90;;;;;;5121641;27;20082;-52
2022/01/18 10:46:43;;;;;;;18.42;5.20;;;6.20;99.90;;;;;;5121042;27;20054;-52
2022/01/18 10:49:10;;;;;;;14.27;4.63;;;6.30;99.90;;;;;;5122807;27;20035;-51
2022/01/18 10:51:39;;;;;;;18.33;5.20;;;6.20;99.90;;;;;;5122127;27;20326;-55
2022/01/18 10:54:09;;;;;;;16.73;5.35;;;6.30;99.90;;;;;;5121492;27;20035;-53
2022/01/18 10:56:44;;;;;;;20.15;5.72;;;6.30;99.90;;;;;;5127148;27;20111;-52
2022/01/18 10:59:23;;;;;;;16.33;5.63;;;6.30;99.90;;;;;;5126332;27;20039;-52
2022/01/18 11:02:13;;;;;;;18.17;5.22;;;6.30;99.90;;;;;;5125683;27;20031;-54
2022/01/18 11:04:46;;;;;;;18.17;6.00;;;6.30;99.90;;;;;;5125036;27;20030;-54
2022/01/18 11:07:13;;;;;;;16.40;6.13;;;6.30;99.90;;;;;;5126977;27;20042;-53
2022/01/18 11:09:40;;;;;;;16.80;6.32;;;6.20;99.90;;;;;;5128584;27;20272;-53
2022/01/18 11:12:07;;;;;;;17.60;6.28;;;6.30;99.90;;;;;;5123427;27;20035;-53
2022/01/18 11:14:36;;;;;;;21.13;6.57;;;6.20;99.90;;;;;;5123785;27;20067;-52
2022/01/18 11:17:03;;;;;;;20.40;6.53;;;6.20;99.90;;;;;;5125210;27;20032;-54
2022/01/18 11:19:32;;;;;;;18.02;6.43;;;6.20;99.90;;;;;;5107912;27;20550;-53
2022/01/18 11:22:00;;;;;;;22.58;7.15;;;6.30;99.90;;;;;;5111032;27;20125;-50
2022/01/18 11:24:28;;;;;;;24.35;7.78;;;6.30;99.90;;;;;;5128910;27;20038;-52
2022/01/18 11:26:56;;;;;;;20.67;6.93;;;6.30;99.90;;;;;;5125186;27;20045;-53
2022/01/18 11:29:22;;;;;;;20.67;7.60;;;6.30;99.90;;;;;;5123512;27;20040;-53
2022/01/18 11:31:49;;;;;;;19.88;7.20;;;6.30;99.90;;;;;;5122813;27;20078;-50
2022/01/18 11:34:28;;;;;;;15.98;6.78;;;6.20;99.90;;;;;;5110071;27;20042;-51
2022/01/18 11:37:02;;;;;;;21.10;6.82;;;6.20;99.90;;;;;;5126751;27;20039;-50
2022/01/18 11:39:31;;;;;;;18.52;6.20;;;6.20;99.90;;;;;;5129733;27;20039;-51
2022/01/18 11:42:12;;;;;;;18.98;6.75;;;6.20;99.90;;;;;;5131846;27;20085;-51
2022/01/18 11:44:39;;;;;;;15.48;6.45;;;6.20;99.90;;;;;;5132045;27;20045;-52
2022/01/18 11:47:06;;;;;;;18.50;6.93;;;6.20;99.90;;;;;;5132225;27;20039;-51
2022/01/18 11:49:33;;;;;;;16.27;6.75;;;6.20;99.90;;;;;;5131618;28;20043;-49
2022/01/18 11:52:03;;;;;;;16.42;6.50;;;6.20;99.90;;;;;;5132357;28;20063;-53
2022/01/18 11:56:58;;;;;;;17.83;6.07;;;6.20;99.90;;;;;;5126053;28;20027;-50
2022/01/18 11:59:39;;;;;;;22.38;6.70;;;6.20;99.90;;;;;;5130594;28;20036;-55
2022/01/18 12:02:05;;;;;;;21.45;6.95;;;6.20;99.90;;;;;;5127120;27;20481;-52
2022/01/18 12:07:10;;;;;;;21.45;6.53;;;6.20;99.90;;;;;;5122743;28;20039;-49
2022/01/18 12:12:39;;;;;;;16.55;5.97;;;6.20;99.90;;;;;;5322211;22;20398;-54
2022/01/18 12:15:26;;;;;;;15.65;6.40;;;6.20;99.90;;;;;;5014761;28;20184;-50
2022/01/18 12:17:57;;;;;;;18.48;6.55;;;6.20;99.90;;;;;;5020196;28;20053;-52
2022/01/18 12:20:35;;;;;;;21.60;6.80;;;6.20;99.90;;;;;;5022323;28;20030;-52
2022/01/18 12:23:08;;;;;;;15.70;6.97;;;6.30;99.90;;;;;;5021109;28;20480;-55
2022/01/18 12:25:37;;;;;;;18.33;7.13;;;6.30;99.90;;;;;;5019935;28;20032;-53
2022/01/18 12:28:32;;;;;;;21.83;6.72;;;6.30;99.90;;;;;;5017281;28;21049;-52
2022/01/18 12:31:06;;;;;;;22.00;6.68;;;6.40;99.90;;;;;;5021128;28;20121;-51
2022/01/18 12:33:45;;;;;;;17.23;6.60;;;6.30;99.90;;;;;;5021687;28;20091;-53
2022/01/18 12:36:29;;;;;;;15.95;6.95;;;6.40;99.90;;;;;;5020205;28;20559;-53
2022/01/18 12:38:59;;;;;;;23.60;7.50;;;6.40;99.90;;;;;;5019763;28;20472;-55
2022/01/18 12:41:47;;;;;;;20.83;7.55;;;6.40;99.90;;;;;;5018797;28;20048;-51
2022/01/18 12:44:22;;;;;;;25.08;7.95;;;6.40;99.90;;;;;;5020293;28;20030;-56
2022/01/18 12:46:56;;;;;;;18.23;8.30;;;6.40;99.90;;;;;;5023974;28;20033;-53
2022/01/18 12:49:22;;;;;;;23.02;8.02;;;6.40;99.90;;;;;;5022275;28;20042;-51
2022/01/18 12:51:55;;;;;;;21.75;8.48;;;6.40;99.90;;;;;;5020189;28;20484;-56
2022/01/18 12:54:33;;;;;;;24.75;9.13;;;6.50;99.90;;;;;;5021259;28;20399;-52
2022/01/18 12:57:11;;;;;;;20.60;7.97;;;6.40;99.90;;;;;;5017361;28;20037;-51
2022/01/18 12:59:56;;;;;;;20.92;8.02;;;6.50;99.90;;;;;;5001133;28;20033;-54
2022/01/18 13:02:22;;;;;;;24.02;8.13;;;6.50;99.90;;;;;;4999555;28;20033;-53
2022/01/18 13:04:58;;;;;;;18.40;7.40;;;6.50;99.90;;;;;;5021803;28;20038;-49
2022/01/18 13:07:24;;;;;;;19.52;7.93;;;6.50;99.90;;;;;;5019605;28;20437;-52
2022/01/18 13:09:58;;;;;;;19.02;6.93;;;6.50;99.90;;;;;;5020933;28;20033;-53
2022/01/18 13:12:37;;;;;;;20.30;7.53;;;6.50;99.90;;;;;;5021421;28;20084;-54
2022/01/18 13:15:06;;;;;;;19.33;8.05;;;6.50;99.90;;;;;;5020185;28;20049;-52
2022/01/18 13:23:19;;;;;;;17.42;6.88;;;6.40;99.90;;;;;;5030997;28;20071;-49
2022/01/18 13:25:59;;;;;;;20.10;7.70;;;6.40;99.90;;;;;;5031014;28;20100;-54
2022/01/18 13:28:35;;;;;;;20.95;8.30;;;6.40;99.90;;;;;;5032667;28;20104;-54
2022/01/18 13:31:19;;;;;;;25.48;8.50;;;6.30;99.90;;;;;;5031475;28;20122;-53
2022/01/18 13:34:01;;;;;;;25.83;9.63;;;6.30;99.90;;;;;;5033041;28;20033;-52
2022/01/18 13:36:33;;;;;;;28.92;11.35;;;6.30;99.90;;;;;;5032924;28;20041;-53
2022/01/18 13:39:22;;;;;;;28.60;9.95;;;6.20;99.90;;;;;;5032799;28;20044;-53
2022/01/18 13:41:48;;;;;;;43.78;12.88;;;6.20;99.90;;;;;;5015149;28;20072;-50
2022/01/18 13:44:14;;;;;;;45.35;15.13;;;6.20;99.90;;;;;;5033151;28;20053;-53
2022/01/18 13:46:40;;;;;;;38.83;13.13;;;6.10;99.90;;;;;;5032989;28;20041;-55
2022/01/18 13:49:07;;;;;;;41.15;14.95;;;6.10;99.90;;;;;;5032557;28;20396;-51
2022/01/18 13:51:33;;;;;;;34.40;13.30;;;6.00;99.90;;;;;;5032502;28;20061;-52
2022/01/18 13:54:04;;;;;;;41.13;13.23;;;6.00;99.90;;;;;;5045139;28;20037;-52
2022/01/18 13:56:30;;;;;;;35.38;13.48;;;6.00;99.90;;;;;;5015677;28;20044;-52
2022/01/18 13:59:04;;;;;;;34.58;12.85;;;5.90;99.90;;;;;;5014444;28;20485;-50
2022/01/18 14:01:38;;;;;;;38.53;13.23;;;5.90;99.90;;;;;;5032941;28;20029;-53
2022/01/18 14:04:18;;;;;;;33.95;12.63;;;5.90;99.90;;;;;;5032270;28;20077;-51
2022/01/18 14:06:44;;;;;;;31.70;12.35;;;5.80;99.90;;;;;;5032892;28;20048;-51
2022/01/18 14:09:13;;;;;;;40.17;12.35;;;5.80;99.90;;;;;;5029434;28;20033;-51
2022/01/18 14:11:47;;;;;;;36.58;12.07;;;5.80;99.90;;;;;;5032259;28;20037;-52
2022/01/18 14:14:25;;;;;;;30.70;11.63;;;5.70;99.90;;;;;;5032517;28;20487;-50
2022/01/18 14:16:50;;;;;;;34.75;11.73;;;5.80;99.90;;;;;;5030616;28;20488;-52